Current Conditions
Regen
Bui



Rainfall
0.00 (mm) - 0.00 (in)
Pressure
1009.92 (hPa) - 29.82 (inHG)
Visibility

7.0 (km) - 4.4 (miles)
   Temperature
14  °C
57°F
13  °C
Dewpoint
94  %
 Humidity
   Wind Speed
23  km/h
12  kts
14  mph
6.3  m/s
   Wind Direction
 350°
Due North
   Airport Data
EHLE
Location Lelystad 20 km (12.43 mi)
Metar :EHLE 100825Z AUTO 35012KT 310V030 7000 -RA SCT005 BKN006 OVC008 14/13 Q1010 RERA REDZ TEMPO 4000
Fri 10th July 10:25 am
   Raw Metar Info
Raw METAR is the most common format in the world for the transmission of observational weather data. It is highly standardized through the International Civil Aviation Organization (ICAO), which allows it to be understood throughout most of the world.
   API Info
Data Provided by
https://www.checkwx.com/weather/EHLE
   © Info
CSS/SVG/PHP scripts were developed by weather34.com for use in the weather34 template © 2015-2020

Guide Info provided by Metar-Wikipedia